Time;durP1;ratioP1;P1;durP2;ratioP2;P2;SDS_P1;SDS_P2;PMS_P1;PMS_P2;Temp;Humidity;BMP_temperature;BMP_pressure;BME280_temperature;BME280_humidity;BME280_pressure;Samples;Min_cycle;Max_cycle;Signal;HPM_P1;HPM_P2
2021/10/24 00:01:34;;;;;;;11.80;3.93;;;;;;;;;;5072736;28;20021;-55
2021/10/24 00:04:00;;;;;;;9.83;3.90;;;;;;;;;;5070810;28;20024;-57
2021/10/24 00:06:25;;;;;;;8.93;4.10;;;;;;;;;;5071569;28;20052;-56
2021/10/24 00:08:51;;;;;;;7.77;3.97;;;;;;;;;;5072255;28;20488;-57
2021/10/24 00:11:16;;;;;;;7.43;3.83;;;;;;;;;;5072343;28;20119;-57
2021/10/24 00:13:41;;;;;;;7.00;3.87;;;;;;;;;;5071381;28;20036;-57
2021/10/24 00:16:06;;;;;;;6.20;3.00;;;;;;;;;;5072500;28;20477;-57
2021/10/24 00:18:32;;;;;;;9.50;3.10;;;;;;;;;;5071932;28;20366;-57
2021/10/24 00:20:57;;;;;;;5.87;2.40;;;;;;;;;;5072293;28;20530;-56
2021/10/24 00:23:22;;;;;;;7.80;3.50;;;;;;;;;;5070158;28;20597;-57
2021/10/24 00:25:48;;;;;;;5.37;3.10;;;;;;;;;;5072535;28;20028;-57
2021/10/24 00:28:13;;;;;;;6.47;2.90;;;;;;;;;;5070739;28;20209;-57
2021/10/24 00:30:39;;;;;;;8.33;2.77;;;;;;;;;;5071893;28;20111;-56
2021/10/24 00:33:04;;;;;;;8.70;3.20;;;;;;;;;;5086966;28;20035;-57
2021/10/24 00:35:30;;;;;;;6.27;3.37;;;;;;;;;;5071765;28;20028;-57
2021/10/24 00:37:55;;;;;;;6.80;3.37;;;;;;;;;;5072083;28;20040;-56
2021/10/24 00:40:20;;;;;;;7.60;3.27;;;;;;;;;;5072240;28;20028;-57
2021/10/24 00:42:47;;;;;;;8.33;3.60;;;;;;;;;;5071915;28;20480;-56
2021/10/24 00:45:12;;;;;;;9.50;3.20;;;;;;;;;;5071964;28;20021;-57
2021/10/24 00:47:37;;;;;;;8.83;3.70;;;;;;;;;;5071698;28;20051;-56
2021/10/24 00:50:03;;;;;;;7.43;3.60;;;;;;;;;;5071549;28;20044;-56
2021/10/24 00:52:28;;;;;;;6.03;2.67;;;;;;;;;;5071554;28;20485;-57
2021/10/24 00:54:53;;;;;;;7.57;3.13;;;;;;;;;;5071956;28;20496;-54
2021/10/24 00:57:18;;;;;;;5.27;2.53;;;;;;;;;;5069004;28;20024;-55
2021/10/24 00:59:44;;;;;;;7.87;2.87;;;;;;;;;;5071492;28;20067;-56
2021/10/24 01:02:09;;;;;;;6.73;2.63;;;;;;;;;;5071539;28;20031;-56
2021/10/24 01:04:35;;;;;;;7.87;2.97;;;;;;;;;;5071291;28;20591;-58
2021/10/24 01:07:03;;;;;;;8.43;2.80;;;;;;;;;;5071640;28;20024;-56
2021/10/24 01:09:29;;;;;;;6.40;2.90;;;;;;;;;;5072004;28;20091;-57
2021/10/24 01:11:54;;;;;;;6.93;2.80;;;;;;;;;;5070391;28;20520;-57
2021/10/24 01:14:20;;;;;;;4.43;2.17;;;;;;;;;;5070037;28;20013;-55
2021/10/24 01:16:45;;;;;;;6.63;2.73;;;;;;;;;;5071956;28;20029;-55
2021/10/24 01:19:12;;;;;;;4.43;2.77;;;;;;;;;;5071142;28;20032;-57
2021/10/24 01:21:37;;;;;;;5.60;2.47;;;;;;;;;;5071375;28;20032;-57
2021/10/24 01:24:02;;;;;;;5.60;2.40;;;;;;;;;;5071609;28;20369;-57
2021/10/24 01:26:28;;;;;;;4.23;2.37;;;;;;;;;;5068387;28;20561;-57
2021/10/24 01:28:54;;;;;;;5.63;2.43;;;;;;;;;;5070469;28;20569;-58
2021/10/24 01:31:19;;;;;;;5.37;2.80;;;;;;;;;;5071305;28;20048;-57
2021/10/24 01:33:44;;;;;;;6.33;2.83;;;;;;;;;;5069822;28;20071;-57
2021/10/24 01:36:10;;;;;;;5.23;2.27;;;;;;;;;;5071344;28;20055;-57
2021/10/24 01:38:36;;;;;;;7.10;2.50;;;;;;;;;;5070003;28;20462;-56
2021/10/24 01:41:02;;;;;;;5.73;2.73;;;;;;;;;;5071601;28;20161;-55
2021/10/24 01:43:27;;;;;;;7.37;2.77;;;;;;;;;;5071564;28;20473;-57
2021/10/24 01:45:53;;;;;;;7.20;3.00;;;;;;;;;;5075323;28;20025;-57
2021/10/24 01:48:19;;;;;;;5.90;2.73;;;;;;;;;;5074738;28;20052;-58
2021/10/24 01:50:45;;;;;;;4.40;2.30;;;;;;;;;;5074760;28;20115;-57
2021/10/24 01:53:11;;;;;;;9.63;3.23;;;;;;;;;;5074567;28;20071;-56
2021/10/24 01:55:36;;;;;;;8.33;2.47;;;;;;;;;;5075328;28;20262;-58
2021/10/24 01:58:03;;;;;;;6.47;2.47;;;;;;;;;;5073922;28;20049;-58
2021/10/24 02:00:28;;;;;;;7.47;2.93;;;;;;;;;;5074860;28;20171;-58
2021/10/24 02:02:53;;;;;;;4.70;2.20;;;;;;;;;;5074293;28;20489;-58
2021/10/24 02:05:19;;;;;;;7.53;2.43;;;;;;;;;;5074210;28;20427;-57
2021/10/24 02:07:44;;;;;;;5.63;2.27;;;;;;;;;;5075039;28;20036;-58
2021/10/24 02:10:10;;;;;;;5.20;2.50;;;;;;;;;;5090367;28;20028;-57
2021/10/24 02:12:36;;;;;;;4.60;2.43;;;;;;;;;;5074496;28;20043;-57
2021/10/24 02:15:03;;;;;;;4.53;2.17;;;;;;;;;;5074257;28;20099;-57
2021/10/24 02:17:28;;;;;;;6.53;2.90;;;;;;;;;;5074713;28;20370;-58
2021/10/24 02:19:53;;;;;;;5.57;2.40;;;;;;;;;;5073007;28;20024;-57
2021/10/24 02:22:18;;;;;;;5.83;2.40;;;;;;;;;;5074168;28;20029;-54
2021/10/24 02:24:44;;;;;;;5.77;2.07;;;;;;;;;;5074461;28;20067;-57
2021/10/24 02:27:09;;;;;;;5.93;2.00;;;;;;;;;;5072108;28;20079;-57
2021/10/24 02:29:35;;;;;;;5.37;1.93;;;;;;;;;;5073876;28;20593;-58
2021/10/24 02:32:01;;;;;;;4.30;1.67;;;;;;;;;;5074265;28;20060;-57
2021/10/24 02:34:26;;;;;;;6.00;2.30;;;;;;;;;;5073683;28;20032;-57
2021/10/24 02:36:51;;;;;;;8.83;2.30;;;;;;;;;;5073115;28;20067;-58
2021/10/24 02:39:16;;;;;;;6.13;2.37;;;;;;;;;;5074139;28;20107;-57
2021/10/24 02:41:41;;;;;;;6.60;2.30;;;;;;;;;;5074065;28;20430;-55
2021/10/24 02:44:07;;;;;;;7.53;2.13;;;;;;;;;;5073745;28;20024;-57
2021/10/24 02:46:32;;;;;;;4.87;2.23;;;;;;;;;;5074295;28;20110;-56
2021/10/24 02:48:57;;;;;;;4.60;2.40;;;;;;;;;;5073578;28;20102;-57
2021/10/24 02:51:22;;;;;;;5.97;2.20;;;;;;;;;;5072908;28;20042;-58
2021/10/24 02:53:47;;;;;;;3.77;1.90;;;;;;;;;;5073307;28;20020;-58
2021/10/24 02:56:13;;;;;;;6.50;1.93;;;;;;;;;;5072237;28;20024;-58
2021/10/24 02:58:38;;;;;;;7.60;2.67;;;;;;;;;;5086578;28;20451;-56
2021/10/24 03:01:03;;;;;;;7.80;2.50;;;;;;;;;;5073779;28;20062;-58
2021/10/24 03:03:28;;;;;;;2.67;1.70;;;;;;;;;;5073112;28;20105;-55
2021/10/24 03:05:53;;;;;;;4.73;2.20;;;;;;;;;;5073232;28;20396;-58
2021/10/24 03:08:19;;;;;;;5.03;1.70;;;;;;;;;;5072351;28;20021;-56
2021/10/24 03:10:44;;;;;;;5.50;2.30;;;;;;;;;;5073666;28;20103;-57
2021/10/24 03:13:09;;;;;;;5.03;2.10;;;;;;;;;;5073388;28;20112;-58
2021/10/24 03:15:34;;;;;;;4.53;1.80;;;;;;;;;;5073434;28;20412;-57
2021/10/24 03:17:59;;;;;;;6.63;2.27;;;;;;;;;;5073172;28;20078;-57
2021/10/24 03:20:25;;;;;;;5.53;2.23;;;;;;;;;;5073114;28;20033;-57
2021/10/24 03:22:50;;;;;;;7.17;2.20;;;;;;;;;;5072874;28;20451;-57
2021/10/24 03:25:15;;;;;;;5.77;2.40;;;;;;;;;;5073652;28;20484;-57
2021/10/24 03:27:40;;;;;;;4.13;2.27;;;;;;;;;;5069945;28;20454;-58
2021/10/24 03:30:06;;;;;;;3.90;1.90;;;;;;;;;;5072841;28;20047;-56
2021/10/24 03:32:31;;;;;;;4.80;2.53;;;;;;;;;;5072603;28;20100;-57
2021/10/24 03:34:56;;;;;;;5.13;2.20;;;;;;;;;;5087912;28;20115;-56
2021/10/24 03:37:21;;;;;;;5.60;2.13;;;;;;;;;;5073073;28;20484;-57
2021/10/24 03:39:47;;;;;;;6.50;2.00;;;;;;;;;;5072913;28;20025;-55
2021/10/24 03:42:12;;;;;;;5.70;1.93;;;;;;;;;;5072666;28;20139;-57
2021/10/24 03:44:37;;;;;;;6.93;2.33;;;;;;;;;;5072688;28;20021;-56
2021/10/24 03:47:02;;;;;;;3.87;1.70;;;;;;;;;;5072934;28;20476;-54
2021/10/24 03:49:27;;;;;;;6.27;1.80;;;;;;;;;;5072227;28;20025;-57
2021/10/24 03:51:53;;;;;;;7.23;1.90;;;;;;;;;;5071138;28;20028;-57
2021/10/24 03:54:18;;;;;;;4.17;1.73;;;;;;;;;;5072474;28;20021;-57
2021/10/24 03:56:43;;;;;;;5.00;1.80;;;;;;;;;;5068483;28;20029;-56
2021/10/24 03:59:08;;;;;;;3.43;2.03;;;;;;;;;;5072952;28;20028;-55
2021/10/24 04:01:33;;;;;;;5.07;2.17;;;;;;;;;;5072657;28;20100;-59
2021/10/24 04:03:59;;;;;;;4.93;1.97;;;;;;;;;;5071936;28;20024;-56
2021/10/24 04:06:24;;;;;;;4.97;1.60;;;;;;;;;;5072396;28;20044;-56
2021/10/24 04:08:49;;;;;;;4.33;1.70;;;;;;;;;;5071868;28;20052;-56
2021/10/24 04:11:14;;;;;;;4.87;1.70;;;;;;;;;;5072572;28;20033;-57
2021/10/24 04:13:39;;;;;;;5.00;1.80;;;;;;;;;;5072352;28;20035;-58
2021/10/24 04:16:05;;;;;;;8.10;2.20;;;;;;;;;;5072511;28;20472;-57
2021/10/24 04:18:30;;;;;;;3.27;1.40;;;;;;;;;;5071743;28;20024;-57
2021/10/24 04:20:55;;;;;;;4.20;1.70;;;;;;;;;;5072191;28;20097;-58
2021/10/24 04:23:20;;;;;;;3.47;1.60;;;;;;;;;;5071915;28;20029;-57
2021/10/24 04:25:46;;;;;;;3.97;2.13;;;;;;;;;;5072549;28;20377;-56
2021/10/24 04:28:12;;;;;;;2.67;1.63;;;;;;;;;;5069482;28;20091;-56
2021/10/24 04:30:37;;;;;;;3.00;1.50;;;;;;;;;;5072010;28;20021;-57
2021/10/24 04:33:03;;;;;;;4.67;1.90;;;;;;;;;;5071982;28;20024;-58
2021/10/24 04:35:28;;;;;;;4.00;1.70;;;;;;;;;;5071903;28;20155;-57
2021/10/24 04:37:53;;;;;;;3.30;1.50;;;;;;;;;;5072116;28;20469;-58
2021/10/24 04:40:18;;;;;;;2.93;1.50;;;;;;;;;;5072009;28;20012;-57
2021/10/24 04:42:43;;;;;;;4.93;1.43;;;;;;;;;;5072148;28;20059;-57
2021/10/24 04:45:09;;;;;;;3.83;1.93;;;;;;;;;;5071413;28;20029;-58
2021/10/24 04:47:34;;;;;;;7.77;1.70;;;;;;;;;;5072163;28;20036;-57
2021/10/24 04:50:00;;;;;;;3.03;1.50;;;;;;;;;;5071810;28;20085;-57
2021/10/24 04:52:25;;;;;;;5.60;1.40;;;;;;;;;;5071548;28;20496;-57
2021/10/24 04:54:50;;;;;;;4.60;1.53;;;;;;;;;;5072049;28;20193;-57
2021/10/24 04:57:15;;;;;;;3.20;1.50;;;;;;;;;;5068409;28;20047;-56
2021/10/24 04:59:41;;;;;;;7.17;1.60;;;;;;;;;;5070163;28;20025;-57
2021/10/24 05:02:06;;;;;;;2.93;1.40;;;;;;;;;;5071642;28;20016;-57
2021/10/24 05:04:31;;;;;;;5.37;1.77;;;;;;;;;;5071386;28;20103;-57
2021/10/24 05:06:56;;;;;;;4.47;1.50;;;;;;;;;;5071679;28;20031;-58
2021/10/24 05:09:22;;;;;;;5.40;1.30;;;;;;;;;;5071631;28;20025;-57
2021/10/24 05:11:47;;;;;;;2.80;0.87;;;;;;;;;;5071855;28;20048;-58
2021/10/24 05:14:12;;;;;;;2.93;1.07;;;;;;;;;;5071474;28;20500;-56
2021/10/24 05:16:37;;;;;;;4.23;1.00;;;;;;;;;;5071861;28;20115;-56
2021/10/24 05:19:03;;;;;;;7.27;1.30;;;;;;;;;;5072869;28;20021;-57
2021/10/24 05:21:29;;;;;;;5.80;1.10;;;;;;;;;;5075253;28;20016;-56
2021/10/24 05:23:54;;;;;;;4.30;1.10;;;;;;;;;;5074363;28;20172;-57
2021/10/24 05:26:20;;;;;;;3.50;1.03;;;;;;;;;;5074415;28;20024;-57
2021/10/24 05:28:45;;;;;;;4.47;0.80;;;;;;;;;;5073494;28;20064;-57
2021/10/24 05:31:10;;;;;;;3.07;1.40;;;;;;;;;;5075356;28;20035;-56
2021/10/24 05:33:35;;;;;;;5.93;1.20;;;;;;;;;;5074901;28;20055;-52
2021/10/24 05:36:01;;;;;;;4.83;1.17;;;;;;;;;;5073879;28;20090;-57
2021/10/24 05:38:26;;;;;;;4.17;2.00;;;;;;;;;;5075283;28;20028;-57
2021/10/24 05:40:51;;;;;;;4.37;1.60;;;;;;;;;;5075344;28;20017;-57
2021/10/24 05:43:17;;;;;;;3.43;1.73;;;;;;;;;;5075009;28;20492;-57
2021/10/24 05:45:44;;;;;;;3.70;1.93;;;;;;;;;;5074816;28;20480;-57
2021/10/24 05:48:13;;;;;;;4.00;2.10;;;;;;;;;;5074980;28;20024;-57
2021/10/24 05:50:39;;;;;;;5.37;2.80;;;;;;;;;;5074714;28;20031;-58
2021/10/24 05:53:04;;;;;;;5.47;2.80;;;;;;;;;;5074563;28;20021;-57
2021/10/24 05:55:29;;;;;;;5.13;2.97;;;;;;;;;;5075130;28;20456;-57
2021/10/24 05:57:54;;;;;;;5.50;2.83;;;;;;;;;;5071608;28;20066;-56
2021/10/24 06:00:19;;;;;;;5.23;3.00;;;;;;;;;;5074583;28;20027;-56
2021/10/24 06:02:45;;;;;;;4.97;2.80;;;;;;;;;;5074687;28;20031;-55
2021/10/24 06:05:10;;;;;;;7.07;3.27;;;;;;;;;;5074184;28;20052;-55
2021/10/24 06:07:36;;;;;;;7.23;3.50;;;;;;;;;;5074776;28;20388;-56
2021/10/24 06:10:12;;;;;;;5.63;3.10;;;;;;;;;;5074687;28;20074;-56
2021/10/24 06:15:03;;;;;;;5.67;3.60;;;;;;;;;;5067825;28;20420;-57
2021/10/24 06:17:29;;;;;;;5.40;3.00;;;;;;;;;;5074430;28;20020;-54
2021/10/24 06:19:54;;;;;;;6.43;2.93;;;;;;;;;;5074187;28;20052;-56
2021/10/24 06:22:19;;;;;;;6.13;3.10;;;;;;;;;;5074047;28;20491;-58
2021/10/24 06:24:45;;;;;;;5.87;3.13;;;;;;;;;;5074353;28;20032;-57
2021/10/24 06:27:10;;;;;;;5.73;3.03;;;;;;;;;;5070666;28;20021;-57
2021/10/24 06:29:36;;;;;;;6.03;2.20;;;;;;;;;;5073693;28;20515;-57
2021/10/24 06:32:01;;;;;;;5.57;2.70;;;;;;;;;;5072088;28;20117;-57
2021/10/24 06:34:27;;;;;;;4.43;2.40;;;;;;;;;;5073508;28;20023;-57
2021/10/24 06:36:52;;;;;;;5.17;2.03;;;;;;;;;;5073940;28;20078;-53
2021/10/24 06:39:17;;;;;;;6.30;2.30;;;;;;;;;;5074410;28;20600;-58
2021/10/24 06:41:42;;;;;;;3.63;2.17;;;;;;;;;;5074146;28;20475;-57
2021/10/24 06:44:07;;;;;;;4.17;2.77;;;;;;;;;;5073718;28;20065;-57
2021/10/24 06:46:33;;;;;;;4.50;2.40;;;;;;;;;;5073720;28;20033;-54
2021/10/24 06:48:58;;;;;;;5.93;2.77;;;;;;;;;;5073505;28;20039;-56
2021/10/24 06:51:23;;;;;;;5.97;2.50;;;;;;;;;;5074086;28;20103;-57
2021/10/24 06:53:48;;;;;;;5.27;2.87;;;;;;;;;;5073429;28;20174;-56
2021/10/24 06:56:13;;;;;;;3.17;2.70;;;;;;;;;;5071213;28;20028;-57
2021/10/24 06:58:38;;;;;;;6.90;2.67;;;;;;;;;;5071700;28;20043;-56
2021/10/24 07:01:04;;;;;;;3.83;2.70;;;;;;;;;;5089113;28;20043;-56
2021/10/24 07:03:29;;;;;;;2.90;2.17;;;;;;;;;;5073498;28;20062;-56
2021/10/24 07:05:54;;;;;;;8.07;3.67;;;;;;;;;;5071922;28;20639;-57
2021/10/24 07:08:20;;;;;;;5.00;3.17;;;;;;;;;;5073673;28;20032;-55
2021/10/24 07:10:45;;;;;;;5.47;3.03;;;;;;;;;;5073309;28;20024;-57
2021/10/24 07:13:10;;;;;;;6.30;3.23;;;;;;;;;;5073155;28;20453;-56
2021/10/24 07:15:35;;;;;;;3.87;2.73;;;;;;;;;;5073439;28;20074;-57
2021/10/24 07:18:01;;;;;;;3.83;3.10;;;;;;;;;;5073326;28;20024;-56
2021/10/24 07:20:28;;;;;;;4.87;3.03;;;;;;;;;;5073069;28;20283;-58
2021/10/24 07:22:53;;;;;;;5.73;3.80;;;;;;;;;;5072799;28;20028;-57
2021/10/24 07:25:18;;;;;;;13.77;7.73;;;;;;;;;;5073095;28;20103;-55
2021/10/24 07:27:44;;;;;;;11.10;6.70;;;;;;;;;;5069871;28;20102;-54
2021/10/24 07:30:10;;;;;;;11.93;6.63;;;;;;;;;;5072828;28;20423;-56
2021/10/24 07:32:35;;;;;;;8.33;5.53;;;;;;;;;;5071444;28;20032;-58
2021/10/24 07:35:01;;;;;;;8.25;6.05;;;;;;;;;;5072378;28;20021;-57
2021/10/24 07:37:26;;;;;;;7.90;4.10;;;;;;;;;;5088641;28;20033;-57
2021/10/24 07:39:51;;;;;;;9.55;5.00;;;;;;;;;;5071883;28;20025;-58
2021/10/24 07:42:17;;;;;;;7.47;4.00;;;;;;;;;;5072868;28;20613;-56
2021/10/24 07:44:42;;;;;;;7.20;4.18;;;;;;;;;;5072712;28;20028;-57
2021/10/24 07:47:07;;;;;;;7.05;4.28;;;;;;;;;;5072972;28;20389;-55
2021/10/24 07:49:33;;;;;;;7.63;3.60;;;;;;;;;;5072254;28;20439;-57
2021/10/24 07:51:58;;;;;;;7.57;4.00;;;;;;;;;;5072274;28;20449;-57
2021/10/24 07:54:24;;;;;;;7.03;3.00;;;;;;;;;;5072451;28;20119;-57
2021/10/24 07:56:49;;;;;;;4.05;2.65;;;;;;;;;;5069458;28;20025;-53
2021/10/24 07:59:14;;;;;;;5.22;2.05;;;;;;;;;;5071840;28;20112;-57
2021/10/24 08:01:40;;;;;;;4.32;1.88;;;;;;;;;;5072162;28;20028;-55
2021/10/24 08:04:06;;;;;;;5.60;1.58;;;;;;;;;;5072192;28;20028;-53
2021/10/24 08:06:32;;;;;;;3.45;1.05;;;;;;;;;;5071160;28;20063;-54
2021/10/24 08:08:58;;;;;;;3.55;1.20;;;;;;;;;;5071233;28;20081;-55
2021/10/24 08:11:23;;;;;;;5.18;1.20;;;;;;;;;;5072569;28;20480;-58
2021/10/24 08:13:49;;;;;;;6.55;1.30;;;;;;;;;;5071813;28;20050;-55
2021/10/24 08:16:14;;;;;;;4.78;1.17;;;;;;;;;;5072365;28;20035;-57
2021/10/24 08:18:39;;;;;;;3.97;0.85;;;;;;;;;;5072005;28;20021;-57
2021/10/24 08:21:04;;;;;;;7.00;0.70;;;;;;;;;;5072180;28;20025;-56
2021/10/24 08:23:31;;;;;;;2.45;0.60;;;;;;;;;;5071281;28;20059;-54
2021/10/24 08:25:56;;;;;;;3.92;0.55;;;;;;;;;;5072574;28;20028;-55
2021/10/24 08:28:22;;;;;;;4.00;0.60;;;;;;;;;;5068589;28;20055;-56
2021/10/24 08:30:48;;;;;;;3.33;0.95;;;;;;;;;;5072594;28;20036;-52
2021/10/24 08:33:14;;;;;;;3.30;0.50;;;;;;;;;;5070674;28;20020;-58
2021/10/24 08:35:39;;;;;;;4.47;0.93;;;;;;;;;;5071835;28;20024;-57
2021/10/24 08:38:04;;;;;;;2.85;0.60;;;;;;;;;;5072152;28;20031;-56
2021/10/24 08:40:30;;;;;;;4.25;0.93;;;;;;;;;;5071998;28;20017;-57
2021/10/24 08:43:02;;;;;;;5.50;0.60;;;;;;;;;;5070864;28;20393;-56
2021/10/24 08:45:27;;;;;;;3.65;0.60;;;;;;;;;;5071153;28;20035;-54
2021/10/24 08:47:53;;;;;;;2.45;1.08;;;;;;;;;;5072040;28;20017;-58
2021/10/24 08:50:19;;;;;;;4.63;0.70;;;;;;;;;;5071592;28;20392;-57
2021/10/24 08:52:44;;;;;;;3.42;0.50;;;;;;;;;;5086905;28;20016;-56
2021/10/24 08:55:10;;;;;;;4.00;0.80;;;;;;;;;;5071156;28;20021;-59
2021/10/24 08:57:36;;;;;;;6.13;0.70;;;;;;;;;;5067750;28;20025;-57
2021/10/24 09:00:03;;;;;;;3.45;0.90;;;;;;;;;;5071588;28;20027;-56
2021/10/24 09:02:47;;;;;;;3.25;0.73;;;;;;;;;;5071625;28;20472;-57
2021/10/24 09:05:26;;;;;;;4.10;0.90;;;;;;;;;;5070826;28;20009;-56
2021/10/24 09:07:54;;;;;;;4.63;0.60;;;;;;;;;;5071710;28;20028;-56
2021/10/24 09:10:36;;;;;;;3.67;0.63;;;;;;;;;;5071935;28;20043;-56
2021/10/24 09:13:05;;;;;;;3.92;0.70;;;;;;;;;;5071731;28;20082;-56
2021/10/24 09:15:52;;;;;;;4.38;0.80;;;;;;;;;;5069825;28;20513;-57
2021/10/24 09:18:18;;;;;;;3.45;0.60;;;;;;;;;;5071430;28;20012;-57
2021/10/24 09:20:43;;;;;;;5.22;1.58;;;;;;;;;;5071163;28;20358;-57
2021/10/24 09:23:10;;;;;;;3.15;0.40;;;;;;;;;;5071017;28;20071;-57
2021/10/24 09:25:49;;;;;;;2.22;0.50;;;;;;;;;;5071119;28;20487;-57
2021/10/24 09:28:20;;;;;;;1.63;0.30;;;;;;;;;;5068135;28;20051;-57
2021/10/24 09:30:45;;;;;;;2.72;0.75;;;;;;;;;;5071062;28;20020;-56
2021/10/24 09:33:10;;;;;;;1.88;0.52;;;;;;;;;;5071424;28;20550;-56
2021/10/24 09:35:40;;;;;;;2.42;0.30;;;;;;;;;;5069463;28;20020;-56
2021/10/24 09:38:06;;;;;;;3.08;1.25;;;;;;;;;;5071224;28;20424;-55
2021/10/24 09:40:33;;;;;;;2.95;0.40;;;;;;;;;;5071239;28;20385;-54
2021/10/24 09:43:08;;;;;;;2.97;0.30;;;;;;;;;;5071367;28;20021;-57
2021/10/24 09:45:34;;;;;;;3.28;0.43;;;;;;;;;;5052589;28;20021;-58
2021/10/24 09:48:12;;;;;;;3.72;0.30;;;;;;;;;;5063307;28;20025;-57
2021/10/24 09:50:39;;;;;;;2.80;0.50;;;;;;;;;;5071137;28;20020;-57
2021/10/24 09:53:09;;;;;;;3.00;0.40;;;;;;;;;;5070852;28;20031;-58
2021/10/24 09:55:34;;;;;;;1.77;0.35;;;;;;;;;;5070012;28;20536;-59
2021/10/24 09:58:00;;;;;;;2.53;0.45;;;;;;;;;;5067216;28;20021;-55
2021/10/24 10:00:26;;;;;;;0.98;0.30;;;;;;;;;;5071416;28;20047;-56
2021/10/24 10:02:51;;;;;;;1.73;0.30;;;;;;;;;;5071129;28;20465;-57
2021/10/24 10:05:17;;;;;;;1.75;0.30;;;;;;;;;;5070934;28;20077;-57
2021/10/24 10:07:42;;;;;;;1.85;0.60;;;;;;;;;;5074654;28;20025;-57
2021/10/24 10:10:07;;;;;;;2.80;0.30;;;;;;;;;;5054726;28;20028;-56
2021/10/24 10:12:35;;;;;;;0.90;0.30;;;;;;;;;;5069953;28;20642;-57
2021/10/24 10:15:01;;;;;;;2.15;0.32;;;;;;;;;;5066782;28;20550;-56
2021/10/24 10:17:27;;;;;;;1.85;0.40;;;;;;;;;;5074725;28;20020;-57
2021/10/24 10:19:53;;;;;;;0.90;0.30;;;;;;;;;;5073799;28;20036;-54
2021/10/24 10:22:21;;;;;;;1.58;0.25;;;;;;;;;;5074221;28;20175;-57
2021/10/24 10:24:46;;;;;;;1.58;0.30;;;;;;;;;;5074399;28;20017;-56
2021/10/24 10:27:35;;;;;;;1.45;0.20;;;;;;;;;;5070781;28;20022;-58
2021/10/24 10:30:09;;;;;;;1.92;0.20;;;;;;;;;;5074035;28;20111;-58
2021/10/24 10:32:34;;;;;;;1.52;0.30;;;;;;;;;;5074191;28;20060;-57
2021/10/24 10:35:06;;;;;;;2.73;0.30;;;;;;;;;;5073635;28;20056;-58
2021/10/24 10:37:50;;;;;;;1.35;0.20;;;;;;;;;;5074431;28;20029;-57
2021/10/24 10:40:29;;;;;;;2.85;0.30;;;;;;;;;;5074100;28;20164;-58
2021/10/24 10:42:56;;;;;;;1.52;0.30;;;;;;;;;;5073870;28;20021;-56
2021/10/24 10:45:24;;;;;;;1.55;0.30;;;;;;;;;;5089265;28;20470;-57
2021/10/24 10:48:00;;;;;;;2.17;0.40;;;;;;;;;;5094287;28;20016;-56
2021/10/24 10:50:28;;;;;;;2.10;0.30;;;;;;;;;;5093687;28;20119;-56
2021/10/24 10:53:01;;;;;;;2.17;0.40;;;;;;;;;;5081361;28;20521;-56
2021/10/24 10:55:28;;;;;;;1.45;0.30;;;;;;;;;;5073805;28;20078;-57
2021/10/24 10:57:54;;;;;;;0.73;0.32;;;;;;;;;;5073931;28;20476;-57
2021/10/24 11:00:33;;;;;;;1.35;0.50;;;;;;;;;;5073628;28;20042;-57
2021/10/24 11:02:58;;;;;;;1.17;0.50;;;;;;;;;;5074167;28;20077;-57
2021/10/24 11:05:36;;;;;;;1.20;0.40;;;;;;;;;;5072884;28;20013;-58
2021/10/24 11:08:02;;;;;;;3.28;0.40;;;;;;;;;;5073880;28;20024;-59
2021/10/24 11:10:44;;;;;;;1.65;0.30;;;;;;;;;;5073352;28;20435;-56
2021/10/24 11:13:28;;;;;;;2.00;0.40;;;;;;;;;;5073508;28;20022;-57
2021/10/24 11:15:53;;;;;;;1.50;0.30;;;;;;;;;;5071849;28;20028;-57
2021/10/24 11:18:31;;;;;;;1.10;0.30;;;;;;;;;;5071626;28;20075;-56
2021/10/24 11:20:57;;;;;;;2.78;0.20;;;;;;;;;;5073100;28;20270;-57
2021/10/24 11:23:24;;;;;;;1.52;0.25;;;;;;;;;;5072641;28;20033;-57
2021/10/24 11:25:50;;;;;;;2.03;0.40;;;;;;;;;;5072609;28;20009;-57
2021/10/24 11:28:17;;;;;;;1.15;0.30;;;;;;;;;;5069606;28;20051;-58
2021/10/24 11:30:43;;;;;;;2.45;1.30;;;;;;;;;;5072888;28;20017;-58
2021/10/24 11:33:09;;;;;;;1.92;0.40;;;;;;;;;;5071861;28;20504;-56
2021/10/24 11:35:35;;;;;;;1.38;0.50;;;;;;;;;;5070973;28;20066;-56
2021/10/24 11:38:04;;;;;;;1.35;0.40;;;;;;;;;;5072940;28;20028;-57
2021/10/24 11:40:30;;;;;;;1.73;0.50;;;;;;;;;;5072657;28;20016;-58
2021/10/24 11:42:55;;;;;;;1.20;0.20;;;;;;;;;;5072954;28;20016;-58
2021/10/24 11:45:22;;;;;;;1.67;0.37;;;;;;;;;;5072650;28;20477;-56
2021/10/24 11:48:01;;;;;;;0.80;0.30;;;;;;;;;;5072534;28;20267;-57
2021/10/24 11:50:35;;;;;;;1.75;0.50;;;;;;;;;;5072178;28;20021;-58
2021/10/24 11:53:00;;;;;;;1.90;0.45;;;;;;;;;;5072152;28;20024;-57
2021/10/24 11:55:26;;;;;;;1.67;0.52;;;;;;;;;;5071320;28;20025;-57
2021/10/24 12:01:15;;;;;;;1.13;0.38;;;;;;;;;;5011062;28;20316;-58
2021/10/24 12:03:41;;;;;;;1.75;0.45;;;;;;;;;;5010777;28;20117;-56
2021/10/24 12:06:06;;;;;;;1.40;0.30;;;;;;;;;;5019345;28;20585;-56
2021/10/24 12:08:43;;;;;;;1.30;0.40;;;;;;;;;;5017295;28;20037;-57
2021/10/24 12:11:12;;;;;;;2.92;0.45;;;;;;;;;;5010562;28;20054;-57
2021/10/24 12:13:38;;;;;;;3.90;0.40;;;;;;;;;;5010501;28;20033;-57
2021/10/24 12:16:04;;;;;;;1.60;0.35;;;;;;;;;;5010325;28;20048;-57
2021/10/24 12:18:30;;;;;;;1.35;0.40;;;;;;;;;;5010002;28;20564;-57
2021/10/24 12:20:56;;;;;;;1.77;0.47;;;;;;;;;;5009863;28;20516;-58
2021/10/24 12:23:22;;;;;;;0.93;0.40;;;;;;;;;;5010016;28;20021;-57
2021/10/24 12:25:48;;;;;;;1.98;0.40;;;;;;;;;;5010337;28;20034;-58
2021/10/24 12:28:21;;;;;;;2.15;0.50;;;;;;;;;;5013932;28;20088;-57
2021/10/24 12:30:51;;;;;;;1.67;0.60;;;;;;;;;;5017022;28;20096;-58
2021/10/24 12:33:26;;;;;;;3.83;0.63;;;;;;;;;;5072359;28;20032;-57
2021/10/24 12:35:54;;;;;;;1.83;0.55;;;;;;;;;;5077668;28;20024;-57
2021/10/24 12:38:19;;;;;;;1.63;0.40;;;;;;;;;;5092594;28;20133;-58
2021/10/24 12:40:50;;;;;;;1.85;0.50;;;;;;;;;;5072815;28;20028;-57
2021/10/24 12:43:16;;;;;;;2.65;0.35;;;;;;;;;;5071924;28;20077;-58
2021/10/24 12:45:52;;;;;;;2.50;0.50;;;;;;;;;;5071496;28;20020;-57
2021/10/24 12:48:18;;;;;;;1.58;0.20;;;;;;;;;;5071788;28;20016;-59
2021/10/24 12:50:44;;;;;;;2.00;0.40;;;;;;;;;;5070951;28;20024;-58
2021/10/24 12:53:11;;;;;;;2.00;0.30;;;;;;;;;;5071329;28;20074;-57
2021/10/24 12:55:36;;;;;;;1.15;0.20;;;;;;;;;;5071815;28;20392;-57
2021/10/24 12:58:02;;;;;;;0.98;0.30;;;;;;;;;;5071104;28;20024;-57
2021/10/24 13:00:28;;;;;;;1.02;0.20;;;;;;;;;;5071318;28;20028;-57
2021/10/24 13:02:53;;;;;;;1.75;0.50;;;;;;;;;;5072009;28;20053;-57
2021/10/24 13:05:18;;;;;;;0.90;0.30;;;;;;;;;;5071278;28;20061;-57
2021/10/24 13:07:43;;;;;;;1.58;0.30;;;;;;;;;;5071936;28;20028;-57
2021/10/24 13:10:09;;;;;;;1.35;0.40;;;;;;;;;;5071703;28;20029;-57
2021/10/24 13:12:34;;;;;;;0.90;0.40;;;;;;;;;;5071622;28;20073;-57
2021/10/24 13:14:59;;;;;;;2.92;0.30;;;;;;;;;;5071386;28;20107;-56
2021/10/24 13:17:25;;;;;;;2.50;0.40;;;;;;;;;;5071653;28;20031;-57
2021/10/24 13:19:50;;;;;;;1.35;0.30;;;;;;;;;;5070079;28;20274;-54
2021/10/24 13:24:59;;;;;;;1.35;0.40;;;;;;;;;;5071724;28;20452;-57
2021/10/24 13:27:24;;;;;;;1.77;0.30;;;;;;;;;;5067681;28;20069;-56
2021/10/24 13:29:49;;;;;;;2.33;0.30;;;;;;;;;;5070739;28;20067;-56
2021/10/24 13:32:15;;;;;;;1.80;0.40;;;;;;;;;;5071187;28;20052;-53
2021/10/24 13:34:40;;;;;;;2.20;0.77;;;;;;;;;;5071026;28;20025;-57
2021/10/24 13:37:05;;;;;;;3.25;0.80;;;;;;;;;;5071505;28;20063;-58
2021/10/24 13:39:30;;;;;;;2.63;0.60;;;;;;;;;;5087614;28;20032;-56
2021/10/24 13:41:56;;;;;;;2.42;0.30;;;;;;;;;;5075067;28;20027;-58
2021/10/24 13:44:21;;;;;;;2.70;0.60;;;;;;;;;;5074770;28;20062;-58
2021/10/24 13:46:46;;;;;;;3.03;0.90;;;;;;;;;;5075383;28;20070;-56
2021/10/24 13:49:12;;;;;;;3.47;0.90;;;;;;;;;;5074677;28;20025;-56
2021/10/24 13:51:37;;;;;;;3.20;1.00;;;;;;;;;;5074631;28;20392;-57
2021/10/24 13:54:02;;;;;;;2.67;0.77;;;;;;;;;;5074520;28;20111;-57
2021/10/24 13:56:27;;;;;;;2.83;0.60;;;;;;;;;;5072558;28;20305;-57
2021/10/24 13:58:53;;;;;;;2.83;0.75;;;;;;;;;;5075285;28;20476;-57
2021/10/24 14:01:19;;;;;;;1.67;0.55;;;;;;;;;;5075174;28;20020;-55
2021/10/24 14:03:52;;;;;;;2.80;1.20;;;;;;;;;;5074660;28;20028;-56
2021/10/24 14:06:17;;;;;;;2.97;1.00;;;;;;;;;;5074229;28;20113;-57
2021/10/24 14:08:42;;;;;;;3.15;1.00;;;;;;;;;;5074656;28;20464;-57
2021/10/24 14:11:08;;;;;;;2.63;1.20;;;;;;;;;;5074417;28;20029;-54
2021/10/24 14:13:33;;;;;;;2.58;0.80;;;;;;;;;;5074482;28;20016;-58
2021/10/24 14:15:59;;;;;;;3.30;0.90;;;;;;;;;;5074602;28;20028;-56
2021/10/24 14:18:24;;;;;;;2.95;0.88;;;;;;;;;;5074576;28;20029;-57
2021/10/24 14:20:49;;;;;;;2.58;0.93;;;;;;;;;;5074076;28;20491;-57
2021/10/24 14:23:15;;;;;;;3.15;0.93;;;;;;;;;;5073937;28;20461;-57
2021/10/24 14:25:40;;;;;;;2.78;1.02;;;;;;;;;;5073790;28;20032;-57
2021/10/24 14:28:05;;;;;;;1.73;0.85;;;;;;;;;;5070536;28;20053;-56
2021/10/24 14:30:31;;;;;;;3.95;0.98;;;;;;;;;;5074304;28;20054;-57
2021/10/24 14:32:56;;;;;;;3.28;0.70;;;;;;;;;;5073003;28;20052;-53
2021/10/24 14:35:21;;;;;;;4.57;1.15;;;;;;;;;;5073487;28;20066;-55
2021/10/24 14:37:46;;;;;;;2.53;0.95;;;;;;;;;;5074313;28;20024;-57
2021/10/24 14:40:11;;;;;;;3.42;1.23;;;;;;;;;;5074044;28;20496;-57
2021/10/24 14:42:37;;;;;;;3.67;1.20;;;;;;;;;;5074272;28;20023;-56
2021/10/24 14:45:03;;;;;;;3.05;1.13;;;;;;;;;;5073654;28;20469;-57
2021/10/24 14:47:28;;;;;;;5.15;1.77;;;;;;;;;;5073621;28;20021;-57